Terminal Aerodrome Forecast
Issued by NWS

Home | Current Version | Previous Version | Text Only | Print | Product List | Glossary On
Versions: 1 2 3 4 5 6 7 8 9 10 11 12 13 14 15 16 17 18 19 20 21 22 23
040
FTUS42 KJAX 201720
TAFCRG
TAF
KCRG 201720Z 2018/2118 24010G17KT P6SM BKN035
      TEMPO 2018/2019 BKN025
     FM202300 21006KT P6SM SCT050 BKN250
     FM210700 21005KT 3SM BR SCT003
     FM211000 20004KT 1SM BR BKN002
     FM211400 21009KT 6SM BR BKN009
     FM211500 21010KT P6SM BKN015
     FM211700 21010G17KT P6SM VCTS BKN030CB=

USA.gov is the U.S. government's official web portal to all federal, state and local government web resources and services.